Terminal Aerodrome Forecast
Issued by NWS Blacksburg, VA

Current Version | Previous Version | Graphics & Text | Print | Product List | Glossary On
Versions: 1 2 3 4 5 6 7 8 9 10 11 12 13 14 15 16 17 18 19 20 21 22 23 24 25 26 27 28 29 30 31 32 33 34 35 36 37 38 39 40 41 42
661
FTUS41 KRNK 131120
TAFBLF
TAF
KBLF 131120Z 1312/1412 31012G25KT 5SM -SHSN BR BKN012 OVC020
      TEMPO 1312/1314 2SM -SHSN OVC007
     FM131400 32014G24KT P6SM -SHSN OVC015
     FM132100 32009KT P6SM BKN025
     FM140300 32006KT P6SM BKN040=

USA.gov is the U.S. government's official web portal to all federal, state and local government web resources and services.